Decoded Metar for KBIX (BILOXI in MS, USA) (IATA:BIX) | Meteo·Mobile Aviation Weather
aviador You're here:

KBIX Decoded Metar

BILOXI in MS, USA
Report Time2018-12-16 01:56:00
UTC Time2018-12-16 03:18:28
Flight Rules Old
WindCalm
Visibility9999 m
Phenomena:N/A
Clouds:Overcast 026 Hf
Expected CloudBase > 1,200 ft AGL from Temp-Dew spread
Ceiling2,600 ft
Temp12°C (ISA -3)
Dew Point09°C (82% RH)
AAT11.8°C
QNH1020 hPa
Density Alt-397 ft
Elevation33 ft
Report Wrong Elevation
Raw Report
KBIX 160156Z AUTO 00000KT 10SM OVC026 12/09 A3011 RMK AO2 CIG 024
RWY03 SLP199 T01150091 $=

Extra information for KBIX:More info

Metar Taf Metar & Taf Last 4 Metars F.Rules Stats Wind Profile Meteogram Temp Stats Airport Information Weather charts Add Link Nearby VenuesMetar ALERT Operation Metar Decoded Social comments

AIRNAV info for KBIX